createdAt,value
2023-06-15T00:01:05.433Z,101144.00
2023-06-15T00:03:37.213Z,101148.97
2023-06-15T00:06:08.216Z,101152.28
2023-06-15T00:08:38.474Z,101158.28
2023-06-15T00:11:08.667Z,101148.78
2023-06-15T00:13:41.501Z,101148.81
2023-06-15T00:16:14.163Z,101142.41
2023-06-15T00:18:44.933Z,101147.19
2023-06-15T00:21:14.976Z,101159.22
2023-06-15T00:23:45.606Z,101157.97
2023-06-15T00:26:15.726Z,101151.34
2023-06-15T00:28:51.662Z,101152.59
2023-06-15T00:31:23.595Z,101152.78
2023-06-15T00:33:56.597Z,101148.66
2023-06-15T00:36:27.847Z,101149.06
2023-06-15T00:38:58.130Z,101150.72
2023-06-15T00:41:29.390Z,101147.22
2023-06-15T00:44:04.376Z,101152.81
2023-06-15T00:46:34.828Z,101150.31
2023-06-15T00:49:06.446Z,101144.53
2023-06-15T00:51:40.093Z,101145.78
2023-06-15T00:54:12.991Z,101147.66
2023-06-15T00:56:43.817Z,101150.34
2023-06-15T00:59:18.001Z,101147.88
2023-06-15T01:01:50.376Z,101142.06
2023-06-15T01:04:21.482Z,101147.44
2023-06-15T01:06:53.075Z,101147.03
2023-06-15T01:09:24.980Z,101149.31
2023-06-15T01:11:59.901Z,101146.63
2023-06-15T01:14:48.818Z,101149.94
2023-06-15T01:17:25.152Z,101145.41
2023-06-15T01:20:09.154Z,101154.44
2023-06-15T01:22:53.990Z,101150.09
2023-06-15T01:25:31.183Z,101156.09
2023-06-15T01:28:06.090Z,101158.16
2023-06-15T01:30:44.356Z,101149.88
2023-06-15T01:33:15.697Z,101150.06
2023-06-15T01:35:46.267Z,101157.31
2023-06-15T01:38:21.540Z,101156.06
2023-06-15T01:40:53.907Z,101144.88
2023-06-15T01:43:30.443Z,101142.41
2023-06-15T01:46:01.977Z,101141.16
2023-06-15T01:48:35.982Z,101134.13
2023-06-15T01:51:06.808Z,101132.69
2023-06-15T01:53:37.228Z,101126.59
2023-06-15T01:56:07.668Z,101131.94
2023-06-15T01:58:40.459Z,101132.34
2023-06-15T02:01:10.975Z,101134.19
2023-06-15T02:03:41.124Z,101131.25
2023-06-15T02:06:14.716Z,101133.94
2023-06-15T02:08:45.164Z,101128.38
2023-06-15T02:11:16.981Z,101126.13
2023-06-15T02:13:50.041Z,101126.34
2023-06-15T02:16:21.169Z,101131.09
2023-06-15T02:18:52.441Z,101120.34
2023-06-15T02:21:22.694Z,101119.97
2023-06-15T02:23:53.266Z,101127.41
2023-06-15T02:26:24.336Z,101127.41
2023-06-15T02:28:56.979Z,101122.44
2023-06-15T02:31:28.715Z,101116.25
2023-06-15T02:34:08.245Z,101113.75
2023-06-15T02:36:40.743Z,101116.66
2023-06-15T02:39:13.121Z,101114.81
2023-06-15T02:41:43.259Z,101125.53
2023-06-15T02:44:16.259Z,101119.53
2023-06-15T02:46:47.544Z,101122.44
2023-06-15T02:49:19.680Z,101119.13
2023-06-15T02:51:50.033Z,101115.63
2023-06-15T02:54:22.975Z,101122.03
2023-06-15T02:56:58.060Z,101117.03
2023-06-15T02:59:35.734Z,101112.22
2023-06-15T03:02:11.646Z,101114.69
2023-06-15T03:04:48.780Z,101116.97
2023-06-15T03:07:25.058Z,101119.50
2023-06-15T03:10:15.853Z,101127.72
2023-06-15T03:12:49.283Z,101123.97
2023-06-15T03:15:23.654Z,101130.97
2023-06-15T03:17:55.150Z,101134.91
2023-06-15T03:20:35.360Z,101132.41
2023-06-15T03:23:06.320Z,101125.16
2023-06-15T03:25:36.935Z,101130.28
2023-06-15T03:28:07.661Z,101136.13
2023-06-15T03:30:43.435Z,101134.84
2023-06-15T03:33:14.460Z,101136.19
2023-06-15T03:35:44.751Z,101136.81
2023-06-15T03:38:14.895Z,101135.78
2023-06-15T03:40:45.998Z,101137.44
2023-06-15T03:43:17.166Z,101137.09
2023-06-15T03:45:53.036Z,101133.81
2023-06-15T03:48:23.310Z,101137.53
2023-06-15T03:50:54.238Z,101147.03
2023-06-15T03:53:25.205Z,101145.81
2023-06-15T03:55:55.672Z,101146.63
2023-06-15T03:58:26.218Z,101141.06
2023-06-15T04:01:00.198Z,101134.88
2023-06-15T04:03:30.447Z,101142.53
2023-06-15T04:06:02.502Z,101136.97
2023-06-15T04:08:32.749Z,101136.94
2023-06-15T04:11:03.044Z,101132.19
2023-06-15T04:13:33.141Z,101140.03
2023-06-15T04:16:08.647Z,101139.47
2023-06-15T04:18:42.300Z,101137.88
2023-06-15T04:21:12.388Z,101144.94
2023-06-15T04:23:46.275Z,101146.56
2023-06-15T04:26:17.355Z,101142.03
2023-06-15T04:28:50.603Z,101146.84
2023-06-15T04:31:26.392Z,101145.28
2023-06-15T04:34:00.249Z,101145.56
2023-06-15T04:36:32.673Z,101144.50
2023-06-15T04:39:03.717Z,101147.00
2023-06-15T04:41:36.495Z,101149.66
2023-06-15T04:44:09.117Z,101146.91
2023-06-15T04:46:43.370Z,101150.53
2023-06-15T04:49:15.051Z,101152.13
2023-06-15T04:51:47.245Z,101152.41
2023-06-15T04:54:18.049Z,101157.75
2023-06-15T04:56:48.299Z,101154.00
2023-06-15T04:59:18.395Z,101155.81
2023-06-15T05:01:51.385Z,101160.31
2023-06-15T05:04:34.186Z,101165.56
2023-06-15T05:07:04.570Z,101158.75
2023-06-15T05:09:38.704Z,101152.38
2023-06-15T05:12:13.653Z,101153.69
2023-06-15T05:14:43.744Z,101155.94
2023-06-15T05:17:16.994Z,101154.91
2023-06-15T05:19:47.381Z,101157.00
2023-06-15T05:22:17.531Z,101154.28
2023-06-15T05:24:47.729Z,101159.00
2023-06-15T05:27:17.870Z,101161.16
2023-06-15T05:29:50.129Z,101165.16
2023-06-15T05:32:23.729Z,101164.34
2023-06-15T05:34:54.260Z,101170.91
2023-06-15T05:37:24.911Z,101170.41
2023-06-15T05:39:55.021Z,101163.69
2023-06-15T05:42:25.138Z,101171.34
2023-06-15T05:44:55.729Z,101169.69
2023-06-15T05:47:32.689Z,101165.84
2023-06-15T05:50:07.479Z,101174.56
2023-06-15T05:52:39.066Z,101179.56
2023-06-15T05:55:10.248Z,101171.31
2023-06-15T05:57:55.594Z,101166.56
2023-06-15T06:00:27.217Z,101163.75
2023-06-15T06:03:03.870Z,101165.72
2023-06-15T06:05:53.645Z,101166.50
2023-06-15T06:08:24.906Z,101172.56
2023-06-15T06:10:55.474Z,101172.25
2023-06-15T06:13:33.025Z,101164.69
2023-06-15T06:16:03.133Z,101170.44
2023-06-15T06:18:35.938Z,101169.56
2023-06-15T06:21:06.354Z,101174.50
2023-06-15T06:23:38.246Z,101176.16
2023-06-15T06:26:08.988Z,101179.38
2023-06-15T06:28:39.974Z,101175.94
2023-06-15T06:31:10.144Z,101178.28
2023-06-15T06:33:42.857Z,101183.97
2023-06-15T06:36:13.019Z,101175.97
2023-06-15T06:38:56.937Z,101184.03
2023-06-15T06:41:34.451Z,101184.75
2023-06-15T06:44:04.623Z,101185.84
2023-06-15T06:46:37.648Z,101183.97
2023-06-15T06:49:10.412Z,101177.44
2023-06-15T06:51:40.545Z,101182.06
2023-06-15T06:54:10.922Z,101180.91
2023-06-15T06:56:41.205Z,101176.19
2023-06-15T06:59:11.279Z,101183.41
2023-06-15T07:01:41.386Z,101183.06
2023-06-15T07:04:14.080Z,101180.94
2023-06-15T07:06:46.665Z,101172.88
2023-06-15T07:09:17.629Z,101178.59
2023-06-15T07:11:48.948Z,101177.00
2023-06-15T07:14:19.701Z,101179.50
2023-06-15T07:16:50.046Z,101182.66
2023-06-15T07:19:23.082Z,101180.38
2023-06-15T07:21:53.304Z,101181.72
2023-06-15T07:24:23.457Z,101182.22
2023-06-15T07:26:53.627Z,101182.53
2023-06-15T07:29:29.150Z,101182.06
2023-06-15T07:31:59.305Z,101181.63
2023-06-15T07:34:32.128Z,101178.22
2023-06-15T07:37:02.321Z,101174.88
2023-06-15T07:39:33.463Z,101171.16
2023-06-15T07:42:03.573Z,101165.69
2023-06-15T07:44:33.903Z,101168.34
2023-06-15T07:47:04.119Z,101169.81
2023-06-15T07:49:45.744Z,101159.72
2023-06-15T07:52:16.789Z,101161.63
2023-06-15T07:54:47.238Z,101171.56
2023-06-15T07:57:17.493Z,101169.41
2023-06-15T07:59:47.612Z,101173.25
2023-06-15T08:02:17.736Z,101172.69
2023-06-15T08:04:51.055Z,101170.78
2023-06-15T08:07:21.251Z,101176.56
2023-06-15T08:09:51.851Z,101171.59
2023-06-15T08:12:23.102Z,101170.16
2023-06-15T08:14:53.156Z,101165.97
2023-06-15T08:17:23.538Z,101177.22
2023-06-15T08:19:56.466Z,101172.28
2023-06-15T08:22:26.820Z,101166.34
2023-06-15T08:24:56.992Z,101162.69
2023-06-15T08:27:27.130Z,101162.84
2023-06-15T08:29:58.610Z,101166.16
2023-06-15T08:32:28.800Z,101170.19
2023-06-15T08:35:01.500Z,101166.75
2023-06-15T08:37:31.863Z,101166.69
2023-06-15T08:40:06.981Z,101163.41
2023-06-15T08:42:37.508Z,101165.31
2023-06-15T08:45:09.870Z,101167.53
2023-06-15T08:47:40.241Z,101158.97
2023-06-15T08:50:14.791Z,101158.81
2023-06-15T08:52:46.677Z,101164.00
2023-06-15T08:55:18.125Z,101167.50
2023-06-15T08:57:48.364Z,101157.47
2023-06-15T09:00:21.618Z,101161.88
2023-06-15T09:02:54.155Z,101161.47
2023-06-15T09:05:26.981Z,101161.66
2023-06-15T09:07:57.098Z,101159.81
2023-06-15T09:10:27.166Z,101170.03
2023-06-15T09:12:58.442Z,101164.91
2023-06-15T09:15:32.024Z,101170.75
2023-06-15T09:18:04.218Z,101169.69
2023-06-15T09:20:42.080Z,101162.97
2023-06-15T09:23:15.330Z,101169.81
2023-06-15T09:25:52.981Z,101169.75
2023-06-15T09:28:25.837Z,101165.81
2023-06-15T09:31:00.705Z,101173.81
2023-06-15T09:33:34.250Z,101173.81
2023-06-15T09:36:22.397Z,101174.88
2023-06-15T09:38:56.986Z,101175.16
2023-06-15T09:41:27.074Z,101177.69
2023-06-15T09:43:57.693Z,101178.63
2023-06-15T09:46:32.839Z,101180.06
2023-06-15T09:49:02.921Z,101164.78
2023-06-15T09:51:39.140Z,101164.50
2023-06-15T09:54:10.047Z,101163.06
2023-06-15T09:56:42.258Z,101166.22
2023-06-15T09:59:12.461Z,101167.91
2023-06-15T10:01:43.989Z,101171.25
2023-06-15T10:04:14.433Z,101169.28
2023-06-15T10:06:49.550Z,101161.16
2023-06-15T10:09:23.848Z,101162.47
2023-06-15T10:11:57.629Z,101158.34
2023-06-15T10:14:35.292Z,101166.69
2023-06-15T10:17:10.412Z,101168.00
2023-06-15T10:19:45.282Z,101166.41
2023-06-15T10:22:21.494Z,101162.38
2023-06-15T10:24:53.279Z,101162.91
2023-06-15T10:27:23.499Z,101166.09
2023-06-15T10:30:03.940Z,101163.41
2023-06-15T10:32:50.986Z,101170.78
2023-06-15T10:35:28.009Z,101164.47
2023-06-15T10:38:14.280Z,101165.59
2023-06-15T10:40:49.532Z,101162.38
2023-06-15T10:43:23.112Z,101158.97
2023-06-15T10:45:53.628Z,101156.94
2023-06-15T10:48:25.730Z,101155.47
2023-06-15T10:51:04.993Z,101153.00
2023-06-15T10:53:43.945Z,101149.22
2023-06-15T10:56:18.071Z,101154.66
2023-06-15T10:58:59.396Z,101154.66
2023-06-15T11:01:32.208Z,101148.94
2023-06-15T11:04:03.538Z,101155.72
2023-06-15T11:06:36.919Z,101152.56
2023-06-15T11:09:10.852Z,101145.16
2023-06-15T11:11:42.770Z,101146.06
2023-06-15T11:14:27.292Z,101147.78
2023-06-15T11:17:08.032Z,101136.38
2023-06-15T11:19:45.068Z,101143.88
2023-06-15T11:22:27.455Z,101139.28
2023-06-15T11:25:04.511Z,101135.88
2023-06-15T11:27:35.041Z,101135.72
2023-06-15T11:30:05.240Z,101136.75
2023-06-15T11:32:35.436Z,101138.72
2023-06-15T11:35:07.103Z,101128.28
2023-06-15T11:37:37.187Z,101126.91
2023-06-15T11:40:11.909Z,101125.44
2023-06-15T11:42:42.099Z,101118.72
2023-06-15T11:45:20.032Z,101110.72
2023-06-15T11:47:53.994Z,101115.69
2023-06-15T11:50:25.292Z,101108.50
2023-06-15T11:52:56.015Z,101107.00
2023-06-15T11:55:28.793Z,101104.16
2023-06-15T11:57:58.906Z,101098.97
2023-06-15T12:00:29.094Z,101098.13
2023-06-15T12:03:01.085Z,101091.41
2023-06-15T12:05:31.245Z,101084.56
2023-06-15T12:08:01.373Z,101084.97
2023-06-15T12:10:34.127Z,101084.44
2023-06-15T12:13:04.266Z,101082.28
2023-06-15T12:15:34.431Z,101079.22
2023-06-15T12:18:04.703Z,101076.63
2023-06-15T12:20:39.368Z,101080.09
2023-06-15T12:23:09.640Z,101069.97
2023-06-15T12:25:46.980Z,101070.06
2023-06-15T12:28:18.671Z,101061.72
2023-06-15T12:30:49.534Z,101063.28
2023-06-15T12:33:30.462Z,101064.94
2023-06-15T12:36:02.181Z,101070.19
2023-06-15T12:38:33.838Z,101065.16
2023-06-15T12:41:06.664Z,101064.88
2023-06-15T12:43:36.792Z,101066.78
2023-06-15T12:46:06.872Z,101066.88
2023-06-15T12:48:37.796Z,101059.22
2023-06-15T12:51:08.028Z,101059.84
2023-06-15T12:53:38.604Z,101058.56
2023-06-15T12:56:11.491Z,101058.56
2023-06-15T12:58:41.604Z,101048.97
2023-06-15T13:01:11.752Z,101047.59
2023-06-15T13:03:42.670Z,101041.50
2023-06-15T13:06:12.838Z,101043.75
2023-06-15T13:08:42.915Z,101048.13
2023-06-15T13:11:15.767Z,101043.28
2023-06-15T13:13:45.805Z,101036.41
2023-06-15T13:16:15.919Z,101038.00
2023-06-15T13:18:46.106Z,101031.81
2023-06-15T13:21:18.222Z,101027.44
2023-06-15T13:23:50.756Z,101030.81
2023-06-15T13:26:23.440Z,101030.91
2023-06-15T13:28:53.818Z,101025.50
2023-06-15T13:31:24.130Z,101024.94
2023-06-15T13:33:54.215Z,101026.88
2023-06-15T13:36:24.316Z,101029.59
2023-06-15T13:38:54.971Z,101035.06
2023-06-15T13:41:28.082Z,101031.25
2023-06-15T13:43:58.984Z,101026.59
2023-06-15T13:46:30.114Z,101022.75
2023-06-15T13:49:03.492Z,101021.94
2023-06-15T13:51:35.233Z,101012.41
2023-06-15T13:54:05.922Z,101019.50
2023-06-15T13:56:38.762Z,101016.50
2023-06-15T13:59:08.875Z,101012.69
2023-06-15T14:01:38.993Z,101009.38
2023-06-15T14:04:09.500Z,101011.03
2023-06-15T14:06:42.205Z,101018.31
2023-06-15T14:09:12.432Z,101023.66
2023-06-15T14:11:45.199Z,101042.66
2023-06-15T14:14:16.063Z,101047.81
2023-06-15T14:16:46.336Z,101062.06
2023-06-15T14:19:16.653Z,101049.22
2023-06-15T14:21:46.798Z,101058.63
2023-06-15T14:24:17.050Z,101061.50
2023-06-15T14:26:51.028Z,101052.44
2023-06-15T14:29:21.142Z,101053.00
2023-06-15T14:31:51.863Z,101055.63
2023-06-15T14:34:23.388Z,101047.78
2023-06-15T14:36:54.070Z,101044.13
2023-06-15T14:39:24.267Z,101044.75
2023-06-15T14:41:57.335Z,101035.69
2023-06-15T14:44:29.175Z,101043.09
2023-06-15T14:47:00.828Z,101039.66
2023-06-15T14:49:31.067Z,101041.06
2023-06-15T14:52:01.370Z,101041.88
2023-06-15T14:54:31.443Z,101035.28
2023-06-15T14:57:04.262Z,101043.47
2023-06-15T14:59:34.334Z,101038.16
2023-06-15T15:02:04.546Z,101032.13
2023-06-15T15:04:34.684Z,101037.56
2023-06-15T15:07:05.078Z,101041.31
2023-06-15T15:09:35.166Z,101034.16
2023-06-15T15:12:08.488Z,101013.59
2023-06-15T15:14:38.642Z,101011.19
2023-06-15T15:17:09.308Z,101010.28
2023-06-15T15:19:39.462Z,101015.66
2023-06-15T15:22:09.828Z,101011.09
2023-06-15T15:24:40.116Z,101014.84
2023-06-15T15:27:13.472Z,101012.34
2023-06-15T15:29:43.702Z,101006.00
2023-06-15T15:32:13.802Z,101011.06
2023-06-15T15:34:43.986Z,101008.56
2023-06-15T15:37:14.300Z,101009.69
2023-06-15T15:39:44.348Z,101015.22
2023-06-15T15:42:17.583Z,101011.38
2023-06-15T15:44:47.676Z,101019.22
2023-06-15T15:47:17.767Z,101014.81
2023-06-15T15:49:47.892Z,101013.03
2023-06-15T15:52:18.282Z,101021.25
2023-06-15T15:54:49.104Z,101009.09
2023-06-15T15:57:21.889Z,101019.69
2023-06-15T15:59:52.464Z,101018.69
2023-06-15T16:02:34.602Z,101021.88
2023-06-15T16:05:06.789Z,101023.94
2023-06-15T16:07:37.798Z,101028.28
2023-06-15T16:10:12.253Z,101023.19
2023-06-15T16:12:44.974Z,101021.22
2023-06-15T16:15:15.171Z,101018.69
2023-06-15T16:17:45.556Z,101021.97
2023-06-15T16:20:17.061Z,101016.28
2023-06-15T16:22:47.563Z,101014.16
2023-06-15T16:25:18.418Z,101016.28
2023-06-15T16:27:51.486Z,101013.00
2023-06-15T16:30:21.715Z,101016.53
2023-06-15T16:32:51.976Z,101006.06
2023-06-15T16:35:22.161Z,101005.31
2023-06-15T16:37:52.229Z,101004.81
2023-06-15T16:40:22.308Z,100999.31
2023-06-15T16:43:05.711Z,101002.59
2023-06-15T16:45:35.893Z,101000.94
2023-06-15T16:48:06.048Z,101002.97
2023-06-15T16:50:36.414Z,101004.59
2023-06-15T16:53:10.400Z,101005.13
2023-06-15T16:55:42.330Z,100998.94
2023-06-15T16:58:15.078Z,101004.00
2023-06-15T17:00:45.257Z,101004.75
2023-06-15T17:03:17.308Z,100995.56
2023-06-15T17:05:47.543Z,100992.81
2023-06-15T17:08:18.514Z,100988.84
2023-06-15T17:10:49.002Z,100998.00
2023-06-15T17:13:22.030Z,100991.44
2023-06-15T17:15:52.925Z,101002.25
2023-06-15T17:18:25.868Z,101005.53
2023-06-15T17:20:55.917Z,101002.94
2023-06-15T17:23:25.973Z,101003.06
2023-06-15T17:25:56.135Z,101007.66
2023-06-15T17:28:29.746Z,101012.91
2023-06-15T17:30:59.861Z,101013.25
2023-06-15T17:36:13.918Z,101018.91
2023-06-15T17:38:43.982Z,101017.25
2023-06-15T17:41:15.880Z,101021.13
2023-06-15T17:43:48.573Z,101021.81
2023-06-15T17:46:18.928Z,101027.34
2023-06-15T17:48:49.072Z,101020.13
2023-06-15T17:51:19.438Z,101019.53
2023-06-15T17:53:49.850Z,101023.41
2023-06-15T17:56:19.957Z,101019.22
2023-06-15T17:58:52.657Z,101030.00
2023-06-15T18:01:22.974Z,101029.03
2023-06-15T18:03:53.361Z,101024.31
2023-06-15T18:06:23.650Z,101023.56
2023-06-15T18:08:53.951Z,101024.00
2023-06-15T18:11:24.442Z,101024.56
2023-06-15T18:13:57.249Z,101019.66
2023-06-15T18:16:28.343Z,101022.69
2023-06-15T18:18:58.473Z,101018.00
2023-06-15T18:21:28.657Z,101007.66
2023-06-15T18:24:01.089Z,101009.38
2023-06-15T18:26:31.200Z,101011.47
2023-06-15T18:29:03.915Z,101010.66
2023-06-15T18:31:34.028Z,101001.22
2023-06-15T18:34:04.171Z,101017.84
2023-06-15T18:36:34.279Z,101018.75
2023-06-15T18:39:04.437Z,101020.19
2023-06-15T18:41:34.553Z,101016.03
2023-06-15T18:44:07.825Z,101009.59
2023-06-15T18:46:37.947Z,101014.88
2023-06-15T18:49:08.128Z,101007.09
2023-06-15T18:51:38.264Z,101018.69
2023-06-15T18:54:08.532Z,101005.84
2023-06-15T18:56:38.659Z,101014.25
2023-06-15T18:59:11.417Z,101018.06
2023-06-15T19:01:41.563Z,101011.25
2023-06-15T19:04:11.670Z,101014.53
2023-06-15T19:06:44.245Z,101002.44
2023-06-15T19:09:14.312Z,101007.56
2023-06-15T19:11:44.391Z,101005.53
2023-06-15T19:14:17.099Z,100999.13
2023-06-15T19:16:47.191Z,101002.13
2023-06-15T19:19:33.706Z,101005.41
2023-06-15T19:22:04.157Z,101008.03
2023-06-15T19:24:34.829Z,101007.72
2023-06-15T19:27:05.384Z,101009.88
2023-06-15T19:29:38.038Z,101015.66
2023-06-15T19:32:08.823Z,101025.09
2023-06-15T19:34:38.934Z,101026.69
2023-06-15T19:37:10.783Z,101027.75
2023-06-15T19:39:40.979Z,101025.06
2023-06-15T19:42:12.323Z,101030.66
2023-06-15T19:44:59.821Z,101026.97
2023-06-15T19:47:30.069Z,101025.78
2023-06-15T19:50:00.174Z,101029.63
2023-06-15T19:52:30.480Z,101037.69
2023-06-15T19:55:00.795Z,101036.88
2023-06-15T19:57:30.880Z,101034.63
2023-06-15T20:00:04.890Z,101031.09
2023-06-15T20:02:41.404Z,101033.59
2023-06-15T20:05:12.134Z,101034.25
2023-06-15T20:07:42.251Z,101047.78
2023-06-15T20:10:13.507Z,101041.16
2023-06-15T20:12:43.621Z,101047.78
2023-06-15T20:15:16.622Z,101040.50
2023-06-15T20:17:46.846Z,101043.25
2023-06-15T20:20:17.213Z,101036.22
2023-06-15T20:22:47.627Z,101038.91
2023-06-15T20:25:17.914Z,101036.66
2023-06-15T20:27:47.966Z,101032.47
2023-06-15T20:30:21.120Z,101032.25
2023-06-15T20:32:51.486Z,101033.09
2023-06-15T20:35:21.762Z,101038.91
2023-06-15T20:37:51.924Z,101035.00
2023-06-15T20:40:22.190Z,101032.09
2023-06-15T20:42:52.402Z,101024.63
2023-06-15T20:45:25.165Z,101028.97
2023-06-15T20:47:56.407Z,101017.97
2023-06-15T20:50:26.959Z,101017.97
2023-06-15T20:53:04.669Z,101018.84
2023-06-15T20:55:38.186Z,101017.78
2023-06-15T20:58:09.045Z,101016.56
2023-06-15T21:00:42.307Z,101018.63
2023-06-15T21:03:12.561Z,101017.63
2023-06-15T21:05:42.841Z,101014.28
2023-06-15T21:08:13.521Z,101010.38
2023-06-15T21:10:43.751Z,101009.31
2023-06-15T21:13:13.906Z,101003.72
2023-06-15T21:15:46.716Z,101010.97
2023-06-15T21:18:16.976Z,101010.75
2023-06-15T21:20:47.039Z,101017.19
2023-06-15T21:23:17.152Z,101021.31
2023-06-15T21:25:47.603Z,101030.06
2023-06-15T21:28:17.801Z,101022.19
2023-06-15T21:30:50.626Z,101029.66
2023-06-15T21:33:20.922Z,101025.50
2023-06-15T21:35:51.217Z,101029.03
2023-06-15T21:38:25.204Z,101028.41
2023-06-15T21:40:57.794Z,101021.78
2023-06-15T21:43:27.945Z,101023.03
2023-06-15T21:46:00.934Z,101020.94
2023-06-15T21:48:31.599Z,101022.19
2023-06-15T21:51:01.910Z,101016.81
2023-06-15T21:53:33.906Z,101014.78
2023-06-15T21:56:04.213Z,101013.56
2023-06-15T21:58:34.303Z,101009.47
2023-06-15T22:01:07.458Z,101005.13
2023-06-15T22:03:37.703Z,101011.53
2023-06-15T22:06:08.478Z,100999.56
2023-06-15T22:08:38.919Z,100999.97
2023-06-15T22:11:09.157Z,101001.66
2023-06-15T22:13:42.319Z,100996.28
2023-06-15T22:16:15.190Z,101002.50
2023-06-15T22:18:45.307Z,100999.81
2023-06-15T22:21:15.452Z,100993.38
2023-06-15T22:23:46.371Z,101001.25
2023-06-15T22:26:20.196Z,100995.03
2023-06-15T22:28:50.309Z,100990.09
2023-06-15T22:31:23.501Z,100984.69
2023-06-15T22:33:53.660Z,100984.91
2023-06-15T22:36:24.055Z,100985.94
2023-06-15T22:38:57.513Z,100984.13
2023-06-15T22:41:28.602Z,100976.69
2023-06-15T22:44:02.817Z,100981.88
2023-06-15T22:46:39.175Z,100973.63
2023-06-15T22:49:10.681Z,100975.50
2023-06-15T22:51:46.722Z,100980.72
2023-06-15T22:54:17.226Z,100977.00
2023-06-15T22:56:49.268Z,100981.16
2023-06-15T22:59:22.290Z,100981.56
2023-06-15T23:01:55.151Z,100976.00
2023-06-15T23:04:25.297Z,100978.69
2023-06-15T23:06:58.331Z,100977.84
2023-06-15T23:09:28.480Z,100980.72
2023-06-15T23:11:58.703Z,100986.72
2023-06-15T23:14:32.130Z,100971.84
2023-06-15T23:17:05.151Z,100969.53
2023-06-15T23:19:35.408Z,100971.00
2023-06-15T23:22:06.863Z,100969.16
2023-06-15T23:24:37.095Z,100973.28
2023-06-15T23:27:12.701Z,100974.09
2023-06-15T23:29:45.529Z,100970.78
2023-06-15T23:32:19.741Z,100966.25
2023-06-15T23:34:49.923Z,100967.91
2023-06-15T23:37:20.102Z,100969.38
2023-06-15T23:39:50.336Z,100959.88
2023-06-15T23:42:24.337Z,100960.50
2023-06-15T23:45:04.764Z,100962.56
2023-06-15T23:47:37.954Z,100959.25
2023-06-15T23:50:09.651Z,100957.41
2023-06-15T23:52:40.620Z,100960.06
2023-06-15T23:55:11.829Z,100956.34
2023-06-15T23:57:42.314Z,100947.44
